createdAt,value
2023-01-19T00:00:42.545Z,983.17
2023-01-19T00:01:42.437Z,983.17
2023-01-19T00:02:42.454Z,983.15
2023-01-19T00:03:42.402Z,983.14
2023-01-19T00:04:42.403Z,983.14
2023-01-19T00:05:42.395Z,983.16
2023-01-19T00:06:42.464Z,983.15
2023-01-19T00:07:42.416Z,983.15
2023-01-19T00:08:42.384Z,983.16
2023-01-19T00:09:42.376Z,983.14
2023-01-19T00:10:42.397Z,983.15
2023-01-19T00:11:42.381Z,983.17
2023-01-19T00:12:42.409Z,983.18
2023-01-19T00:13:42.378Z,983.19
2023-01-19T00:14:42.380Z,983.19
2023-01-19T00:15:42.330Z,983.20
2023-01-19T00:16:42.335Z,983.20
2023-01-19T00:17:42.360Z,983.19
2023-01-19T00:18:42.349Z,983.18
2023-01-19T00:19:42.344Z,983.20
2023-01-19T00:20:42.308Z,983.21
2023-01-19T00:21:42.298Z,983.23
2023-01-19T00:22:42.307Z,983.23
2023-01-19T00:23:42.282Z,983.21
2023-01-19T00:24:42.334Z,983.20
2023-01-19T00:25:42.490Z,983.22
2023-01-19T00:26:42.260Z,983.24
2023-01-19T00:27:42.245Z,983.24
2023-01-19T00:28:42.280Z,983.26
2023-01-19T00:29:42.255Z,983.27
2023-01-19T00:30:42.325Z,983.30
2023-01-19T00:31:42.299Z,983.32
2023-01-19T00:32:42.247Z,983.33
2023-01-19T00:33:42.204Z,983.34
2023-01-19T00:34:42.205Z,983.37
2023-01-19T00:35:42.239Z,983.38
2023-01-19T00:36:42.446Z,983.39
2023-01-19T00:37:42.197Z,983.41
2023-01-19T00:38:42.222Z,983.40
2023-01-19T00:39:42.162Z,983.40
2023-01-19T00:40:42.174Z,983.41
2023-01-19T00:41:42.242Z,983.41
2023-01-19T00:42:42.223Z,983.39
2023-01-19T00:43:42.143Z,983.40
2023-01-19T00:44:42.154Z,983.40
2023-01-19T00:45:42.170Z,983.42
2023-01-19T00:46:42.129Z,983.41
2023-01-19T00:47:42.138Z,983.42
2023-01-19T00:48:42.165Z,983.42
2023-01-19T00:49:42.121Z,983.41
2023-01-19T00:50:42.101Z,983.39
2023-01-19T00:51:42.115Z,983.38
2023-01-19T00:52:42.106Z,983.37
2023-01-19T00:53:42.091Z,983.35
2023-01-19T00:54:42.115Z,983.34
2023-01-19T00:55:42.067Z,983.35
2023-01-19T00:56:42.063Z,983.36
2023-01-19T00:57:42.065Z,983.37
2023-01-19T00:58:42.059Z,983.37
2023-01-19T00:59:42.067Z,983.38
2023-01-19T01:00:42.117Z,983.38
2023-01-19T01:01:45.198Z,983.37
2023-01-19T01:02:42.230Z,983.39
2023-01-19T01:03:42.023Z,983.41
2023-01-19T01:04:42.008Z,983.41
2023-01-19T01:05:41.998Z,983.43
2023-01-19T01:06:42.061Z,983.45
2023-01-19T01:07:41.996Z,983.45
2023-01-19T01:08:41.982Z,983.44
2023-01-19T01:09:42.018Z,983.43
2023-01-19T01:10:41.962Z,983.43
2023-01-19T01:11:41.990Z,983.44
2023-01-19T01:12:42.017Z,983.46
2023-01-19T01:13:42.978Z,983.47
2023-01-19T01:14:41.949Z,983.47
2023-01-19T01:15:41.971Z,983.49
2023-01-19T01:16:41.992Z,983.49
2023-01-19T01:17:41.958Z,983.50
2023-01-19T01:18:42.010Z,983.49
2023-01-19T01:19:41.937Z,983.49
2023-01-19T01:20:41.945Z,983.50
2023-01-19T01:21:41.950Z,983.50
2023-01-19T01:22:41.931Z,983.51
2023-01-19T01:23:41.929Z,983.52
2023-01-19T01:24:41.952Z,983.54
2023-01-19T01:25:41.895Z,983.55
2023-01-19T01:26:41.895Z,983.54
2023-01-19T01:27:41.894Z,983.54
2023-01-19T01:28:41.877Z,983.55
2023-01-19T01:29:41.874Z,983.56
2023-01-19T01:30:41.919Z,983.55
2023-01-19T01:31:41.909Z,983.55
2023-01-19T01:32:41.856Z,983.56
2023-01-19T01:33:42.095Z,983.57
2023-01-19T01:34:41.844Z,983.58
2023-01-19T01:35:41.822Z,983.59
2023-01-19T01:36:41.893Z,983.59
2023-01-19T01:37:41.810Z,983.59
2023-01-19T01:38:41.831Z,983.59
2023-01-19T01:39:41.804Z,983.59
2023-01-19T01:40:41.822Z,983.58
2023-01-19T01:41:41.781Z,983.58
2023-01-19T01:42:42.065Z,983.57
2023-01-19T01:43:41.799Z,983.57
2023-01-19T01:44:41.770Z,983.58
2023-01-19T01:46:02.863Z,983.58
2023-01-19T01:46:41.770Z,983.60
2023-01-19T01:47:41.759Z,983.61
2023-01-19T01:48:41.815Z,983.61
2023-01-19T01:49:41.727Z,983.61
2023-01-19T01:50:41.737Z,983.62
2023-01-19T01:51:41.729Z,983.63
2023-01-19T01:52:41.746Z,983.62
2023-01-19T01:53:41.710Z,983.63
2023-01-19T01:54:41.859Z,983.65
2023-01-19T01:55:41.699Z,983.65
2023-01-19T01:56:41.732Z,983.64
2023-01-19T01:57:41.687Z,983.62
2023-01-19T01:58:41.702Z,983.60
2023-01-19T01:59:41.692Z,983.59
2023-01-19T02:00:41.711Z,983.59
2023-01-19T02:01:41.764Z,983.59
2023-01-19T02:02:41.676Z,983.58
2023-01-19T02:03:41.714Z,983.57
2023-01-19T02:04:41.659Z,983.55
2023-01-19T02:05:41.628Z,983.53
2023-01-19T02:06:41.697Z,983.54
2023-01-19T02:07:41.651Z,983.52
2023-01-19T02:08:41.614Z,983.51
2023-01-19T02:09:41.639Z,983.53
2023-01-19T02:10:41.627Z,983.53
2023-01-19T02:11:41.619Z,983.53
2023-01-19T02:12:41.674Z,983.54
2023-01-19T02:13:41.602Z,983.57
2023-01-19T02:14:41.588Z,983.56
2023-01-19T02:15:41.583Z,983.56
2023-01-19T02:16:41.588Z,983.57
2023-01-19T02:17:41.581Z,983.56
2023-01-19T02:18:41.605Z,983.56
2023-01-19T02:19:41.541Z,983.59
2023-01-19T02:20:41.568Z,983.59
2023-01-19T02:21:41.535Z,983.57
2023-01-19T02:22:41.525Z,983.57
2023-01-19T02:23:41.553Z,983.56
2023-01-19T02:24:41.574Z,983.57
2023-01-19T02:25:41.511Z,983.59
2023-01-19T02:26:41.504Z,983.59
2023-01-19T02:27:41.509Z,983.60
2023-01-19T02:28:41.462Z,983.61
2023-01-19T02:29:41.508Z,983.61
2023-01-19T02:30:41.561Z,983.64
2023-01-19T02:31:41.483Z,983.64
2023-01-19T02:32:41.470Z,983.65
2023-01-19T02:33:41.458Z,983.66
2023-01-19T02:34:41.453Z,983.66
2023-01-19T02:35:41.497Z,983.66
2023-01-19T02:36:41.473Z,983.66
2023-01-19T02:37:41.507Z,983.67
2023-01-19T02:38:41.428Z,983.67
2023-01-19T02:39:41.443Z,983.68
2023-01-19T02:40:41.411Z,983.69
2023-01-19T02:41:41.409Z,983.71
2023-01-19T02:42:41.906Z,983.71
2023-01-19T02:43:41.415Z,983.70
2023-01-19T02:44:41.389Z,983.71
2023-01-19T02:45:41.381Z,983.69
2023-01-19T02:46:41.380Z,983.70
2023-01-19T02:47:41.356Z,983.72
2023-01-19T02:48:41.404Z,983.70
2023-01-19T02:49:41.365Z,983.69
2023-01-19T02:50:41.337Z,983.70
2023-01-19T02:51:41.335Z,983.68
2023-01-19T02:52:41.333Z,983.68
2023-01-19T02:53:41.342Z,983.71
2023-01-19T02:54:41.366Z,983.72
2023-01-19T02:55:41.290Z,983.72
2023-01-19T02:56:41.307Z,983.72
2023-01-19T02:57:41.302Z,983.72
2023-01-19T02:58:41.296Z,983.72
2023-01-19T02:59:41.295Z,983.72
2023-01-19T03:00:41.346Z,983.72
2023-01-19T03:01:41.380Z,983.70
2023-01-19T03:02:41.275Z,983.68
2023-01-19T03:03:41.262Z,983.66
2023-01-19T03:04:41.263Z,983.65
2023-01-19T03:05:41.240Z,983.65
2023-01-19T03:06:41.306Z,983.66
2023-01-19T03:07:41.237Z,983.67
2023-01-19T03:08:41.223Z,983.65
2023-01-19T03:09:41.237Z,983.62
2023-01-19T03:10:41.209Z,983.60
2023-01-19T03:11:41.210Z,983.58
2023-01-19T03:12:41.329Z,983.58
2023-01-19T03:13:41.190Z,983.58
2023-01-19T03:14:41.228Z,983.59
2023-01-19T03:15:41.245Z,983.57
2023-01-19T03:16:41.246Z,983.57
2023-01-19T03:17:41.147Z,983.57
2023-01-19T03:18:41.204Z,983.56
2023-01-19T03:19:41.166Z,983.55
2023-01-19T03:20:41.145Z,983.53
2023-01-19T03:21:41.158Z,983.53
2023-01-19T03:22:41.134Z,983.53
2023-01-19T03:23:41.139Z,983.52
2023-01-19T03:24:41.197Z,983.49
2023-01-19T03:25:41.107Z,983.49
2023-01-19T03:26:41.108Z,983.45
2023-01-19T03:27:41.164Z,983.46
2023-01-19T03:28:41.143Z,983.44
2023-01-19T03:29:41.097Z,983.42
2023-01-19T03:30:41.202Z,983.41
2023-01-19T03:31:41.101Z,983.41
2023-01-19T03:32:41.095Z,983.40
2023-01-19T03:33:41.046Z,983.40
2023-01-19T03:34:41.069Z,983.40
2023-01-19T03:35:41.063Z,983.42
2023-01-19T03:36:41.074Z,983.42
2023-01-19T03:37:41.054Z,983.41
2023-01-19T03:38:41.033Z,983.42
2023-01-19T03:39:41.059Z,983.40
2023-01-19T03:40:41.019Z,983.38
2023-01-19T03:41:41.015Z,983.39
2023-01-19T03:42:41.068Z,983.39
2023-01-19T03:43:41.071Z,983.38
2023-01-19T03:44:41.019Z,983.39
2023-01-19T03:45:40.994Z,983.40
2023-01-19T03:46:40.979Z,983.42
2023-01-19T03:47:51.108Z,983.43
2023-01-19T03:48:42.959Z,983.42
2023-01-19T03:49:40.963Z,983.41
2023-01-19T03:50:40.941Z,983.41
2023-01-19T03:51:40.965Z,983.41
2023-01-19T03:52:40.953Z,983.40
2023-01-19T03:53:40.920Z,983.39
2023-01-19T03:54:40.954Z,983.38
2023-01-19T03:55:40.899Z,983.37
2023-01-19T03:56:40.911Z,983.35
2023-01-19T03:57:40.912Z,983.33
2023-01-19T03:58:40.901Z,983.32
2023-01-19T03:59:40.878Z,983.32
2023-01-19T04:00:40.925Z,983.34
2023-01-19T04:01:40.990Z,983.34
2023-01-19T04:02:40.918Z,983.35
2023-01-19T04:03:40.861Z,983.35
2023-01-19T04:04:40.846Z,983.36
2023-01-19T04:05:40.835Z,983.37
2023-01-19T04:06:40.886Z,983.37
2023-01-19T04:07:40.849Z,983.37
2023-01-19T04:08:40.840Z,983.38
2023-01-19T04:09:40.794Z,983.37
2023-01-19T04:10:40.805Z,983.38
2023-01-19T04:11:40.821Z,983.39
2023-01-19T04:12:40.845Z,983.40
2023-01-19T04:13:40.786Z,983.43
2023-01-19T04:14:40.792Z,983.45
2023-01-19T04:15:40.793Z,983.44
2023-01-19T04:16:40.781Z,983.43
2023-01-19T04:17:40.796Z,983.44
2023-01-19T04:18:40.829Z,983.44
2023-01-19T04:19:40.780Z,983.44
2023-01-19T04:20:40.743Z,983.42
2023-01-19T04:21:40.763Z,983.42
2023-01-19T04:22:40.753Z,983.43
2023-01-19T04:23:40.739Z,983.43
2023-01-19T04:24:40.780Z,983.45
2023-01-19T04:25:40.721Z,983.48
2023-01-19T04:26:40.712Z,983.48
2023-01-19T04:27:40.714Z,983.49
2023-01-19T04:28:40.715Z,983.47
2023-01-19T04:29:40.683Z,983.45
2023-01-19T04:30:40.745Z,983.44
2023-01-19T04:31:40.662Z,983.43
2023-01-19T04:32:40.692Z,983.43
2023-01-19T04:33:40.671Z,983.43
2023-01-19T04:34:40.661Z,983.42
2023-01-19T04:35:40.648Z,983.41
2023-01-19T04:36:40.698Z,983.40
2023-01-19T04:37:40.611Z,983.39
2023-01-19T04:38:40.628Z,983.40
2023-01-19T04:39:40.648Z,983.40
2023-01-19T04:40:40.677Z,983.38
2023-01-19T04:41:40.620Z,983.38
2023-01-19T04:42:40.679Z,983.36
2023-01-19T04:43:40.607Z,983.37
2023-01-19T04:44:40.607Z,983.37
2023-01-19T04:45:40.644Z,983.37
2023-01-19T04:46:40.619Z,983.36
2023-01-19T04:47:40.577Z,983.36
2023-01-19T04:48:41.395Z,983.39
2023-01-19T04:49:40.532Z,983.41
2023-01-19T04:50:40.561Z,983.42
2023-01-19T04:51:40.546Z,983.44
2023-01-19T04:52:40.561Z,983.43
2023-01-19T04:53:40.557Z,983.44
2023-01-19T04:54:40.830Z,983.45
2023-01-19T04:55:40.530Z,983.45
2023-01-19T04:56:40.509Z,983.45
2023-01-19T04:57:40.489Z,983.44
2023-01-19T04:58:40.501Z,983.41
2023-01-19T04:59:40.499Z,983.39
2023-01-19T05:00:40.545Z,983.39
2023-01-19T05:01:40.472Z,983.41
2023-01-19T05:02:40.497Z,983.41
2023-01-19T05:03:40.475Z,983.45
2023-01-19T05:04:40.433Z,983.48
2023-01-19T05:05:40.474Z,983.49
2023-01-19T05:06:40.591Z,983.50
2023-01-19T05:07:40.442Z,983.54
2023-01-19T05:08:40.408Z,983.56
2023-01-19T05:09:40.436Z,983.55
2023-01-19T05:10:40.401Z,983.54
2023-01-19T05:11:40.384Z,983.57
2023-01-19T05:12:40.473Z,983.55
2023-01-19T05:13:40.432Z,983.55
2023-01-19T05:14:40.411Z,983.53
2023-01-19T05:15:40.356Z,983.54
2023-01-19T05:16:40.361Z,983.56
2023-01-19T05:17:40.391Z,983.57
2023-01-19T05:18:40.386Z,983.58
2023-01-19T05:19:40.350Z,983.59
2023-01-19T05:20:40.354Z,983.59
2023-01-19T05:21:40.331Z,983.58
2023-01-19T05:22:40.305Z,983.59
2023-01-19T05:23:40.336Z,983.60
2023-01-19T05:24:40.375Z,983.59
2023-01-19T05:25:40.322Z,983.61
2023-01-19T05:26:40.307Z,983.61
2023-01-19T05:27:40.330Z,983.61
2023-01-19T05:28:40.301Z,983.62
2023-01-19T05:29:40.272Z,983.63
2023-01-19T05:30:40.362Z,983.63
2023-01-19T05:31:40.275Z,983.62
2023-01-19T05:32:40.283Z,983.62
2023-01-19T05:33:40.256Z,983.61
2023-01-19T05:34:40.245Z,983.59
2023-01-19T05:35:40.275Z,983.60
2023-01-19T05:36:40.263Z,983.59
2023-01-19T05:37:40.236Z,983.61
2023-01-19T05:38:40.214Z,983.60
2023-01-19T05:39:40.225Z,983.58
2023-01-19T05:40:40.209Z,983.58
2023-01-19T05:41:40.203Z,983.57
2023-01-19T05:42:40.283Z,983.56
2023-01-19T05:43:40.191Z,983.56
2023-01-19T05:44:40.189Z,983.58
2023-01-19T05:45:40.186Z,983.60
2023-01-19T05:46:40.208Z,983.60
2023-01-19T05:47:40.178Z,983.61
2023-01-19T05:48:40.177Z,983.60
2023-01-19T05:49:40.121Z,983.60
2023-01-19T05:50:40.131Z,983.61
2023-01-19T05:51:40.119Z,983.64
2023-01-19T05:52:40.100Z,983.66
2023-01-19T05:53:40.110Z,983.68
2023-01-19T05:54:40.137Z,983.68
2023-01-19T05:55:40.085Z,983.70
2023-01-19T05:56:40.090Z,983.68
2023-01-19T05:57:40.100Z,983.71
2023-01-19T05:58:40.064Z,983.72
2023-01-19T05:59:40.065Z,983.73
2023-01-19T06:00:40.416Z,983.73
2023-01-19T06:01:40.517Z,983.76
2023-01-19T06:02:40.046Z,983.78
2023-01-19T06:03:40.049Z,983.79
2023-01-19T06:04:40.017Z,983.78
2023-01-19T06:05:40.036Z,983.80
2023-01-19T06:06:40.067Z,983.78
2023-01-19T06:07:39.997Z,983.78
2023-01-19T06:08:39.981Z,983.79
2023-01-19T06:09:40.000Z,983.77
2023-01-19T06:10:39.992Z,983.78
2023-01-19T06:11:39.987Z,983.76
2023-01-19T06:12:40.087Z,983.74
2023-01-19T06:13:41.370Z,983.73
2023-01-19T06:14:39.960Z,983.73
2023-01-19T06:15:39.965Z,983.75
2023-01-19T06:16:39.985Z,983.77
2023-01-19T06:17:39.938Z,983.79
2023-01-19T06:18:41.958Z,983.82
2023-01-19T06:19:39.975Z,983.84
2023-01-19T06:20:39.914Z,983.83
2023-01-19T06:21:39.921Z,983.83
2023-01-19T06:22:39.907Z,983.84
2023-01-19T06:23:39.889Z,983.85
2023-01-19T06:24:39.921Z,983.85
2023-01-19T06:25:39.886Z,983.85
2023-01-19T06:26:39.874Z,983.87
2023-01-19T06:27:39.885Z,983.88
2023-01-19T06:28:39.872Z,983.88
2023-01-19T06:29:39.872Z,983.87
2023-01-19T06:30:39.958Z,983.85
2023-01-19T06:31:39.899Z,983.84
2023-01-19T06:32:39.850Z,983.83
2023-01-19T06:33:39.842Z,983.86
2023-01-19T06:34:39.844Z,983.85
2023-01-19T06:35:39.824Z,983.85
2023-01-19T06:36:39.921Z,983.86
2023-01-19T06:37:39.804Z,983.85
2023-01-19T06:38:39.807Z,983.84
2023-01-19T06:39:39.798Z,983.83
2023-01-19T06:40:39.791Z,983.84
2023-01-19T06:41:39.779Z,983.85
2023-01-19T06:42:39.840Z,983.85
2023-01-19T06:43:39.764Z,983.85
2023-01-19T06:44:39.761Z,983.84
2023-01-19T06:45:39.773Z,983.85
2023-01-19T06:46:39.743Z,983.88
2023-01-19T06:47:39.739Z,983.89
2023-01-19T06:48:39.799Z,983.86
2023-01-19T06:49:39.735Z,983.88
2023-01-19T06:50:39.716Z,983.89
2023-01-19T06:51:39.731Z,983.91
2023-01-19T06:52:39.698Z,983.92
2023-01-19T06:53:39.702Z,983.92
2023-01-19T06:54:39.732Z,983.92
2023-01-19T06:55:39.722Z,983.93
2023-01-19T06:56:39.681Z,983.92
2023-01-19T06:57:39.651Z,983.93
2023-01-19T06:58:39.657Z,983.92
2023-01-19T06:59:39.668Z,983.95
2023-01-19T07:00:39.700Z,983.95
2023-01-19T07:01:39.753Z,983.94
2023-01-19T07:02:39.759Z,983.97
2023-01-19T07:03:39.621Z,983.95
2023-01-19T07:04:39.640Z,983.95
2023-01-19T07:05:39.617Z,983.96
2023-01-19T07:06:39.895Z,983.95
2023-01-19T07:07:39.649Z,983.96
2023-01-19T07:08:39.578Z,983.95
2023-01-19T07:09:39.617Z,983.97
2023-01-19T07:11:24.590Z,983.97
2023-01-19T07:11:40.622Z,983.99
2023-01-19T07:12:39.565Z,983.96
2023-01-19T07:13:39.573Z,983.99
2023-01-19T07:14:39.551Z,984.01
2023-01-19T07:15:39.592Z,984.03
2023-01-19T07:16:39.539Z,984.05
2023-01-19T07:17:39.607Z,984.06
2023-01-19T07:18:39.536Z,984.05
2023-01-19T07:19:39.522Z,984.05
2023-01-19T07:20:39.490Z,984.05
2023-01-19T07:21:39.516Z,984.08
2023-01-19T07:22:39.505Z,984.08
2023-01-19T07:23:39.529Z,984.08
2023-01-19T07:24:39.496Z,984.06
2023-01-19T07:25:39.490Z,984.06
2023-01-19T07:26:39.456Z,984.02
2023-01-19T07:27:39.462Z,984.03
2023-01-19T07:28:39.466Z,984.03
2023-01-19T07:29:39.511Z,984.05
2023-01-19T07:30:39.494Z,984.05
2023-01-19T07:31:39.532Z,984.02
2023-01-19T07:32:39.422Z,984.01
2023-01-19T07:33:39.425Z,984.04
2023-01-19T07:34:39.414Z,984.06
2023-01-19T07:35:39.469Z,984.06
2023-01-19T07:36:39.389Z,984.05
2023-01-19T07:37:39.404Z,984.07
2023-01-19T07:38:39.407Z,984.07
2023-01-19T07:39:39.369Z,984.09
2023-01-19T07:40:39.385Z,984.10
2023-01-19T07:41:39.421Z,984.10
2023-01-19T07:42:39.375Z,984.10
2023-01-19T07:43:39.337Z,984.11
2023-01-19T07:44:39.381Z,984.14
2023-01-19T07:45:39.370Z,984.13
2023-01-19T07:46:39.333Z,984.13
2023-01-19T07:47:39.396Z,984.14
2023-01-19T07:48:39.344Z,984.16
2023-01-19T07:49:39.349Z,984.14
2023-01-19T07:50:39.307Z,984.15
2023-01-19T07:51:39.330Z,984.14
2023-01-19T07:52:39.274Z,984.17
2023-01-19T07:53:39.375Z,984.15
2023-01-19T07:54:39.292Z,984.15
2023-01-19T07:55:39.280Z,984.18
2023-01-19T07:56:39.273Z,984.21
2023-01-19T07:57:39.273Z,984.23
2023-01-19T07:58:39.263Z,984.23
2023-01-19T07:59:39.290Z,984.22
2023-01-19T08:00:39.245Z,984.24
2023-01-19T08:01:39.330Z,984.22
2023-01-19T08:02:39.201Z,984.24
2023-01-19T08:03:39.208Z,984.25
2023-01-19T08:04:39.205Z,984.26
2023-01-19T08:05:39.285Z,984.24
2023-01-19T08:06:39.198Z,984.27
2023-01-19T08:07:39.211Z,984.28
2023-01-19T08:08:39.174Z,984.29
2023-01-19T08:09:39.175Z,984.29
2023-01-19T08:10:39.164Z,984.30
2023-01-19T08:11:39.580Z,984.31
2023-01-19T08:12:39.144Z,984.31
2023-01-19T08:13:39.152Z,984.31
2023-01-19T08:14:39.153Z,984.32
2023-01-19T08:15:39.173Z,984.35
2023-01-19T08:16:39.103Z,984.33
2023-01-19T08:17:39.217Z,984.33
2023-01-19T08:18:39.091Z,984.34
2023-01-19T08:19:41.362Z,984.35
2023-01-19T08:20:39.104Z,984.37
2023-01-19T08:21:39.148Z,984.36
2023-01-19T08:22:39.082Z,984.37
2023-01-19T08:23:39.204Z,984.36
2023-01-19T08:24:39.055Z,984.35
2023-01-19T08:25:39.064Z,984.35
2023-01-19T08:26:39.047Z,984.36
2023-01-19T08:27:39.031Z,984.37
2023-01-19T08:28:39.025Z,984.36
2023-01-19T08:29:39.086Z,984.35
2023-01-19T08:30:39.053Z,984.30
2023-01-19T08:31:39.147Z,984.35
2023-01-19T08:32:39.031Z,984.33
2023-01-19T08:33:38.995Z,984.33
2023-01-19T08:34:39.007Z,984.33
2023-01-19T08:35:39.016Z,984.31
2023-01-19T08:36:38.996Z,984.30
2023-01-19T08:37:38.987Z,984.29
2023-01-19T08:38:38.965Z,984.30
2023-01-19T08:39:38.952Z,984.29
2023-01-19T08:40:38.967Z,984.29
2023-01-19T08:41:39.033Z,984.29
2023-01-19T08:42:38.973Z,984.29
2023-01-19T08:43:38.925Z,984.28
2023-01-19T08:44:43.872Z,984.29
2023-01-19T08:45:39.904Z,984.31
2023-01-19T08:46:38.923Z,984.32
2023-01-19T08:47:38.996Z,984.32
2023-01-19T08:48:39.984Z,984.29
2023-01-19T08:49:38.892Z,984.31
2023-01-19T08:50:38.913Z,984.34
2023-01-19T08:51:38.882Z,984.34
2023-01-19T08:52:38.858Z,984.33
2023-01-19T08:53:38.881Z,984.30
2023-01-19T08:54:38.855Z,984.37
2023-01-19T08:55:38.867Z,984.40
2023-01-19T08:56:38.823Z,984.39
2023-01-19T08:57:38.818Z,984.40
2023-01-19T08:58:38.827Z,984.44
2023-01-19T08:59:38.863Z,984.44
2023-01-19T09:00:38.787Z,984.43
2023-01-19T09:01:38.976Z,984.45
2023-01-19T09:02:38.889Z,984.47
2023-01-19T09:03:38.799Z,984.42
2023-01-19T09:04:38.774Z,984.42
2023-01-19T09:05:38.880Z,984.43
2023-01-19T09:06:38.758Z,984.45
2023-01-19T09:07:38.753Z,984.45
2023-01-19T09:08:38.776Z,984.50
2023-01-19T09:09:38.775Z,984.47
2023-01-19T09:10:38.735Z,984.52
2023-01-19T09:11:38.787Z,984.54
2023-01-19T09:12:38.715Z,984.53
2023-01-19T09:13:38.706Z,984.57
2023-01-19T09:14:38.711Z,984.57
2023-01-19T09:15:38.705Z,984.58
2023-01-19T09:16:38.700Z,984.61
2023-01-19T09:17:39.017Z,984.60
2023-01-19T09:18:38.680Z,984.63
2023-01-19T09:19:38.677Z,984.63
2023-01-19T09:20:38.670Z,984.65
2023-01-19T09:21:38.654Z,984.66
2023-01-19T09:22:38.649Z,984.64
2023-01-19T09:23:38.691Z,984.65
2023-01-19T09:24:38.649Z,984.62
2023-01-19T09:25:38.620Z,984.63
2023-01-19T09:26:38.615Z,984.63
2023-01-19T09:27:38.626Z,984.66
2023-01-19T09:28:38.618Z,984.65
2023-01-19T09:29:38.672Z,984.65
2023-01-19T09:30:38.631Z,984.65
2023-01-19T09:31:38.670Z,984.66
2023-01-19T09:32:38.586Z,984.66
2023-01-19T09:33:38.589Z,984.66
2023-01-19T09:34:38.583Z,984.67
2023-01-19T09:35:38.647Z,984.68
2023-01-19T09:36:38.556Z,984.65
2023-01-19T09:37:38.554Z,984.67
2023-01-19T09:38:38.537Z,984.67
2023-01-19T09:39:38.611Z,984.68
2023-01-19T09:40:39.447Z,984.67
2023-01-19T09:41:38.583Z,984.69
2023-01-19T09:42:38.518Z,984.69
2023-01-19T09:43:38.519Z,984.72
2023-01-19T09:44:38.499Z,984.70
2023-01-19T09:45:38.491Z,984.76
2023-01-19T09:46:38.521Z,984.73
2023-01-19T09:47:38.538Z,984.73
2023-01-19T09:48:38.491Z,984.74
2023-01-19T09:49:38.493Z,984.76
2023-01-19T09:50:38.465Z,984.78
2023-01-19T09:51:38.556Z,984.78
2023-01-19T09:52:38.456Z,984.76
2023-01-19T09:53:38.490Z,984.75
2023-01-19T09:54:38.436Z,984.77
2023-01-19T09:55:38.426Z,984.76
2023-01-19T09:56:38.419Z,984.75
2023-01-19T09:57:38.421Z,984.76
2023-01-19T09:58:38.420Z,984.79
2023-01-19T09:59:38.451Z,984.81
2023-01-19T10:00:38.449Z,984.80
2023-01-19T10:01:38.446Z,984.78
2023-01-19T10:02:38.399Z,984.81
2023-01-19T10:03:38.378Z,984.83
2023-01-19T10:04:38.373Z,984.82
2023-01-19T10:05:38.415Z,984.84
2023-01-19T10:06:38.351Z,984.82
2023-01-19T10:07:38.348Z,984.84
2023-01-19T10:08:38.340Z,984.83
2023-01-19T10:09:38.333Z,984.84
2023-01-19T10:10:38.326Z,984.84
2023-01-19T10:11:51.895Z,984.82
2023-01-19T10:12:39.317Z,984.80
2023-01-19T10:13:38.317Z,984.81
2023-01-19T10:14:38.339Z,984.83
2023-01-19T10:15:38.289Z,984.85
2023-01-19T10:16:38.270Z,984.85
2023-01-19T10:17:38.586Z,984.84
2023-01-19T10:18:38.271Z,984.87
2023-01-19T10:19:38.302Z,984.85
2023-01-19T10:20:38.237Z,984.84
2023-01-19T10:21:38.256Z,984.84
2023-01-19T10:22:38.251Z,984.85
2023-01-19T10:23:38.284Z,984.85
2023-01-19T10:24:38.246Z,984.87
2023-01-19T10:25:38.305Z,984.84
2023-01-19T10:26:38.224Z,984.85
2023-01-19T10:27:38.229Z,984.86
2023-01-19T10:28:38.222Z,984.86
2023-01-19T10:29:38.259Z,984.87
2023-01-19T10:30:38.217Z,984.88
2023-01-19T10:31:38.265Z,984.89
2023-01-19T10:32:38.197Z,984.87
2023-01-19T10:33:38.219Z,984.85
2023-01-19T10:34:38.148Z,984.85
2023-01-19T10:35:38.200Z,984.83
2023-01-19T10:36:38.136Z,984.85
2023-01-19T10:37:38.117Z,984.86
2023-01-19T10:38:38.127Z,984.86
2023-01-19T10:39:38.899Z,984.85
2023-01-19T10:40:38.123Z,984.84
2023-01-19T10:41:38.207Z,984.85
2023-01-19T10:42:38.170Z,984.84
2023-01-19T10:43:38.133Z,984.83
2023-01-19T10:44:38.126Z,984.83
2023-01-19T10:45:38.099Z,984.84
2023-01-19T10:46:38.127Z,984.84
2023-01-19T10:47:38.162Z,984.82
2023-01-19T10:48:38.110Z,984.83
2023-01-19T10:49:38.127Z,984.84
2023-01-19T10:50:38.066Z,984.85
2023-01-19T10:51:38.087Z,984.85
2023-01-19T10:52:38.028Z,984.88
2023-01-19T10:53:38.142Z,984.87
2023-01-19T10:54:38.038Z,984.89
2023-01-19T10:55:38.178Z,984.88
2023-01-19T10:56:37.999Z,984.89
2023-01-19T10:57:38.079Z,984.91
2023-01-19T10:58:37.982Z,984.90
2023-01-19T10:59:38.091Z,984.93
2023-01-19T11:00:38.158Z,984.97
2023-01-19T11:01:38.246Z,984.97
2023-01-19T11:02:38.045Z,984.97
2023-01-19T11:03:37.961Z,984.96
2023-01-19T11:04:37.939Z,984.96
2023-01-19T11:05:38.016Z,984.94
2023-01-19T11:06:37.925Z,984.94
2023-01-19T11:07:37.935Z,984.95
2023-01-19T11:08:37.924Z,984.93
2023-01-19T11:09:37.929Z,984.92
2023-01-19T11:10:37.905Z,984.92
2023-01-19T11:11:37.931Z,984.91
2023-01-19T11:12:37.956Z,984.90
2023-01-19T11:13:37.904Z,984.90
2023-01-19T11:14:37.860Z,984.91
2023-01-19T11:15:37.856Z,984.90
2023-01-19T11:16:37.921Z,984.89
2023-01-19T11:17:37.877Z,984.91
2023-01-19T11:18:37.856Z,984.90
2023-01-19T11:19:37.811Z,984.91
2023-01-19T11:20:37.828Z,984.92
2023-01-19T11:21:37.859Z,984.91
2023-01-19T11:22:37.858Z,984.90
2023-01-19T11:23:38.354Z,984.90
2023-01-19T11:24:37.807Z,984.89
2023-01-19T11:25:37.900Z,984.89
2023-01-19T11:26:37.827Z,984.89
2023-01-19T11:27:37.800Z,984.91
2023-01-19T11:28:37.816Z,984.91
2023-01-19T11:29:37.819Z,984.89
2023-01-19T11:30:37.793Z,984.90
2023-01-19T11:31:37.780Z,984.91
2023-01-19T11:32:37.747Z,984.92
2023-01-19T11:33:37.834Z,984.90
2023-01-19T11:34:37.768Z,984.93
2023-01-19T11:35:37.786Z,984.94
2023-01-19T11:36:37.730Z,984.96
2023-01-19T11:37:37.738Z,984.96
2023-01-19T11:38:37.760Z,984.99
2023-01-19T11:39:37.715Z,984.95
2023-01-19T11:40:37.688Z,984.97
2023-01-19T11:41:37.793Z,984.98
2023-01-19T11:42:37.708Z,984.98
2023-01-19T11:43:48.525Z,984.98
2023-01-19T11:44:38.643Z,984.98
2023-01-19T11:45:37.677Z,984.97
2023-01-19T11:46:37.664Z,984.96
2023-01-19T11:47:37.734Z,984.97
2023-01-19T11:48:37.728Z,984.95
2023-01-19T11:49:37.735Z,984.92
2023-01-19T11:50:37.669Z,984.91
2023-01-19T11:51:37.640Z,984.89
2023-01-19T11:52:37.631Z,984.88
2023-01-19T11:53:37.667Z,984.91
2023-01-19T11:54:37.628Z,984.89
2023-01-19T11:55:37.610Z,984.90
2023-01-19T11:56:37.591Z,984.89
2023-01-19T11:57:37.600Z,984.91
2023-01-19T11:58:37.611Z,984.91
2023-01-19T11:59:37.606Z,984.93
2023-01-19T12:00:37.670Z,984.93
2023-01-19T12:01:37.552Z,984.92
2023-01-19T12:02:37.547Z,984.92
2023-01-19T12:03:37.557Z,984.93
2023-01-19T12:04:37.550Z,984.93
2023-01-19T12:05:37.623Z,984.93
2023-01-19T12:06:37.567Z,984.94
2023-01-19T12:07:37.523Z,984.94
2023-01-19T12:08:37.503Z,984.96
2023-01-19T12:09:37.508Z,985.00
2023-01-19T12:10:37.506Z,984.98
2023-01-19T12:11:37.550Z,984.97
2023-01-19T12:12:37.456Z,984.99
2023-01-19T12:13:37.467Z,985.01
2023-01-19T12:14:37.446Z,985.00
2023-01-19T12:15:37.447Z,985.00
2023-01-19T12:16:37.525Z,985.00
2023-01-19T12:17:37.545Z,985.01
2023-01-19T12:18:37.459Z,985.00
2023-01-19T12:19:37.546Z,985.02
2023-01-19T12:20:37.455Z,985.01
2023-01-19T12:21:37.427Z,985.01
2023-01-19T12:22:37.402Z,985.02
2023-01-19T12:23:37.503Z,985.00
2023-01-19T12:24:37.457Z,985.03
2023-01-19T12:25:37.401Z,985.02
2023-01-19T12:26:37.401Z,985.03
2023-01-19T12:27:37.362Z,985.03
2023-01-19T12:28:37.420Z,985.03